createdAt,value
2023-04-23T00:05:57.931Z,63.49
2023-04-23T00:12:40.898Z,63.21
2023-04-23T00:19:23.193Z,63.02
2023-04-23T00:26:05.818Z,62.98
2023-04-23T00:32:48.560Z,62.82
2023-04-23T00:39:30.842Z,62.85
2023-04-23T00:46:13.887Z,62.71
2023-04-23T00:52:56.648Z,62.69
2023-04-23T00:59:38.951Z,62.82
2023-04-23T01:06:21.590Z,62.96
2023-04-23T01:13:04.730Z,63.11
2023-04-23T01:19:47.108Z,62.99
2023-04-23T01:26:29.491Z,63.28
2023-04-23T01:33:11.803Z,63.26
2023-04-23T01:39:54.029Z,63.21
2023-04-23T01:46:36.937Z,63.21
2023-04-23T01:53:19.537Z,63.40
2023-04-23T02:00:11.468Z,63.35
2023-04-23T02:06:57.010Z,63.30
2023-04-23T02:13:39.143Z,63.26
2023-04-23T02:20:22.188Z,63.19
2023-04-23T02:27:04.879Z,63.50
2023-04-23T02:33:47.216Z,63.53
2023-04-23T02:40:29.698Z,63.68
2023-04-23T02:47:11.882Z,63.82
2023-04-23T02:53:54.432Z,63.74
2023-04-23T03:00:36.712Z,63.84
2023-04-23T03:07:19.013Z,64.00
2023-04-23T03:14:01.206Z,64.34
2023-04-23T03:20:43.340Z,64.25
2023-04-23T03:27:25.513Z,64.50
2023-04-23T03:34:07.807Z,64.71
2023-04-23T03:40:51.509Z,64.68
2023-04-23T03:47:33.950Z,64.82
2023-04-23T03:54:16.481Z,64.56
2023-04-23T04:01:18.308Z,64.69
2023-04-23T04:08:01.691Z,64.44
2023-04-23T04:14:46.004Z,64.42
2023-04-23T04:21:28.444Z,64.47
2023-04-23T04:28:11.841Z,64.30
2023-04-23T04:34:54.226Z,64.18
2023-04-23T04:41:37.446Z,63.93
2023-04-23T04:48:20.110Z,63.82
2023-04-23T04:55:02.530Z,63.61
2023-04-23T05:01:44.828Z,63.47
2023-04-23T05:08:27.183Z,63.35
2023-04-23T05:15:13.390Z,63.43
2023-04-23T05:21:55.662Z,63.44
2023-04-23T05:28:37.889Z,63.40
2023-04-23T05:35:20.253Z,63.49
2023-04-23T05:42:03.119Z,63.12
2023-04-23T05:48:45.346Z,63.69
2023-04-23T05:55:27.836Z,63.26
2023-04-23T06:02:11.382Z,62.96
2023-04-23T06:08:53.637Z,62.52
2023-04-23T06:15:35.808Z,62.13
2023-04-23T06:22:18.035Z,61.39
2023-04-23T06:29:00.127Z,61.23
2023-04-23T06:35:46.837Z,61.17
2023-04-23T06:42:29.449Z,61.34
2023-04-23T06:49:27.510Z,61.27
2023-04-23T06:56:09.915Z,60.92
2023-04-23T07:02:52.393Z,60.08
2023-04-23T07:09:34.645Z,59.79
2023-04-23T07:16:17.047Z,59.00
2023-04-23T07:22:59.806Z,57.61
2023-04-23T07:29:41.914Z,56.97
2023-04-23T07:36:24.077Z,56.44
2023-04-23T07:43:06.391Z,55.67
2023-04-23T07:49:48.568Z,55.16
2023-04-23T07:56:32.526Z,54.50
2023-04-23T08:03:14.851Z,54.27
2023-04-23T08:10:02.724Z,53.09
2023-04-23T08:16:45.290Z,52.21
2023-04-23T08:23:28.050Z,50.88
2023-04-23T08:30:10.606Z,50.02
2023-04-23T08:36:52.721Z,49.65
2023-04-23T08:43:57.489Z,49.01
2023-04-23T08:50:43.507Z,48.79
2023-04-23T08:57:26.245Z,47.48
2023-04-23T09:04:10.136Z,46.47
2023-04-23T09:10:52.316Z,45.62
2023-04-23T09:17:36.178Z,44.84
2023-04-23T09:24:19.004Z,44.35
2023-04-23T09:31:01.202Z,43.00
2023-04-23T09:37:49.202Z,42.11
2023-04-23T09:44:35.259Z,40.76
2023-04-23T09:51:17.499Z,40.23
2023-04-23T09:58:00.358Z,40.18
2023-04-23T10:04:42.884Z,38.70
2023-04-23T10:11:25.743Z,38.01
2023-04-23T10:18:08.295Z,38.20
2023-04-23T10:24:57.226Z,37.58
2023-04-23T10:31:40.686Z,37.01
2023-04-23T10:38:23.970Z,34.42
2023-04-23T10:45:25.690Z,33.22
2023-04-23T10:52:21.165Z,32.57
2023-04-23T10:59:08.711Z,31.23
2023-04-23T11:05:50.830Z,33.14
2023-04-23T11:12:33.554Z,31.72
2023-04-23T11:19:19.916Z,30.40
2023-04-23T11:26:05.029Z,29.97
2023-04-23T11:32:53.124Z,29.37
2023-04-23T11:39:35.579Z,28.14
2023-04-23T11:46:17.800Z,26.13
2023-04-23T11:53:08.968Z,26.15
2023-04-23T11:59:53.848Z,25.71
2023-04-23T12:06:36.303Z,26.05
2023-04-23T12:13:27.392Z,25.74
2023-04-23T12:20:19.504Z,26.65
2023-04-23T12:27:02.994Z,26.17
2023-04-23T12:33:45.325Z,26.18
2023-04-23T12:40:27.469Z,25.81
2023-04-23T12:47:15.353Z,26.56
2023-04-23T12:53:57.719Z,26.74
2023-04-23T13:00:40.206Z,26.14
2023-04-23T13:07:22.471Z,25.81
2023-04-23T13:14:05.547Z,26.79
2023-04-23T13:20:47.657Z,26.97
2023-04-23T13:27:31.117Z,26.54
2023-04-23T13:34:13.577Z,26.22
2023-04-23T13:40:55.861Z,25.89
2023-04-23T13:47:38.058Z,25.85
2023-04-23T13:54:20.822Z,26.44
2023-04-23T14:01:04.171Z,25.60
2023-04-23T14:07:46.821Z,26.27
2023-04-23T14:14:29.244Z,26.13
2023-04-23T14:21:11.650Z,26.60
2023-04-23T14:28:02.259Z,26.75
2023-04-23T14:34:45.209Z,27.84
2023-04-23T14:41:27.597Z,27.17
2023-04-23T14:48:10.610Z,26.68
2023-04-23T14:54:55.977Z,27.16
2023-04-23T15:01:38.744Z,27.47
2023-04-23T15:08:21.415Z,27.37
2023-04-23T15:15:05.028Z,27.93
2023-04-23T15:21:48.078Z,28.42
2023-04-23T15:28:30.312Z,29.01
2023-04-23T15:35:12.510Z,29.61
2023-04-23T15:41:54.762Z,30.11
2023-04-23T15:48:37.127Z,30.76
2023-04-23T15:55:19.403Z,31.30
2023-04-23T16:02:03.059Z,31.70
2023-04-23T16:08:45.324Z,32.20
2023-04-23T16:15:28.830Z,32.99
2023-04-23T16:22:11.535Z,33.51
2023-04-23T16:29:05.555Z,34.00
2023-04-23T16:35:54.269Z,34.83
2023-04-23T16:42:36.502Z,35.31
2023-04-23T16:49:18.740Z,35.27
2023-04-23T16:56:00.907Z,35.74
2023-04-23T17:02:43.449Z,39.41
2023-04-23T17:09:25.663Z,42.01
2023-04-23T17:16:07.836Z,45.40
2023-04-23T17:22:50.056Z,47.48
2023-04-23T17:29:32.461Z,49.00
2023-04-23T17:36:16.065Z,49.98
2023-04-23T17:42:58.174Z,50.71
2023-04-23T17:49:40.647Z,51.57
2023-04-23T17:56:23.055Z,52.14
2023-04-23T18:03:07.394Z,52.55
2023-04-23T18:09:49.945Z,53.25
2023-04-23T18:16:32.204Z,53.26
2023-04-23T18:23:14.716Z,54.01
2023-04-23T18:29:58.794Z,54.31
2023-04-23T18:36:44.730Z,54.91
2023-04-23T18:43:28.573Z,55.19
2023-04-23T18:50:43.797Z,55.15
2023-04-23T18:57:26.631Z,55.85
2023-04-23T19:04:09.940Z,56.58
2023-04-23T19:10:52.218Z,56.79
2023-04-23T19:17:35.588Z,56.96
2023-04-23T19:24:17.901Z,57.30
2023-04-23T19:31:00.071Z,57.68
2023-04-23T19:37:42.330Z,58.29
2023-04-23T19:44:24.549Z,58.92
2023-04-23T19:51:06.845Z,59.92
2023-04-23T19:57:49.052Z,60.05
2023-04-23T20:04:31.573Z,60.28
2023-04-23T20:11:13.990Z,60.98
2023-04-23T20:17:56.372Z,61.62
2023-04-23T20:24:40.363Z,62.25
2023-04-23T20:31:22.528Z,62.67
2023-04-23T20:38:04.792Z,63.29
2023-04-23T20:44:47.174Z,63.29
2023-04-23T20:51:29.825Z,62.88
2023-04-23T20:58:12.115Z,62.47
2023-04-23T21:04:55.032Z,62.10
2023-04-23T21:11:37.221Z,62.16
2023-04-23T21:18:19.733Z,62.21
2023-04-23T21:25:03.687Z,62.60
2023-04-23T21:31:48.549Z,62.92
2023-04-23T21:38:30.906Z,63.19
2023-04-23T21:45:13.425Z,63.71
2023-04-23T21:51:56.103Z,64.23
2023-04-23T21:58:38.258Z,64.86
2023-04-23T22:05:22.166Z,65.35
2023-04-23T22:12:05.117Z,66.19
2023-04-23T22:18:47.763Z,66.88
2023-04-23T22:25:30.000Z,67.32
2023-04-23T22:32:12.259Z,67.86
2023-04-23T22:38:54.951Z,68.66
2023-04-23T22:45:37.110Z,69.71
2023-04-23T22:52:19.329Z,70.42
2023-04-23T22:59:05.019Z,71.30
2023-04-23T23:05:47.754Z,72.00
2023-04-23T23:12:29.900Z,72.60
2023-04-23T23:19:12.658Z,73.02
2023-04-23T23:25:55.055Z,73.74
2023-04-23T23:32:37.404Z,74.46
2023-04-23T23:39:20.535Z,74.91
2023-04-23T23:46:02.857Z,75.48
2023-04-23T23:52:45.016Z,75.66
2023-04-23T23:59:27.544Z,75.87
